Flight Track Log - Related Links

Times and Time Zones

All times are in EDT time to prevent confusion due to time zone crossing. See the N749SS flight status page for this flight to view local times or setup timezone preferences in your user account.

Time Position Orientation Groundspeed Altitude Reporting Facility
EDT Latitude Longitude Course Direction KTS MPH feet Rate Location/Type
Mon 03:28:14 PM 26.2197 -81.7544 266° West 156 180 4,700  Level Miami Center
Mon 03:29:14 PM 26.2147 -81.8375 266° West 105 121 8,300 3,750 Climbing Miami Center
Mon 03:30:14 PM 26.2097 -81.9228 266° West 198 228 12,200 3,650 Climbing Miami Center
Mon 03:31:14 PM 26.2003 -82.0150 264° West 281 323 15,600 2,850 Climbing Miami Center
Mon 03:32:14 PM 26.2167 -82.0850 285° West 298 343 17,900 2,450 Climbing Miami Center
Mon 03:33:14 PM 26.2400 -82.1903 284° West 303 349 20,500 2,350 Climbing Miami Center
Mon 03:34:14 PM 26.3125 -82.2608 319° Northwest 314 361 22,600 1,950 Climbing Miami Center
Mon 03:35:14 PM 26.4047 -82.3044 337° Northwest 337 388 24,400 1,650 Climbing Miami Center
Mon 03:36:14 PM 26.5053 -82.3553 336° Northwest 356 410 25,900 1,500 Climbing Miami Center
Mon 03:37:14 PM 26.6033 -82.4064 335° Northwest 380 437 27,400 1,550 Climbing Miami Center
Mon 03:38:14 PM 26.7078 -82.4625 334° Northwest 399 459 29,000 1,600 Climbing Miami Center
Mon 03:39:14 PM 26.8142 -82.5164 336° Northwest 407 468 30,600 1,700 Climbing Miami Center
Mon 03:40:14 PM 26.9186 -82.5703 335° Northwest 412 474 32,400 1,900 Climbing Miami Center
Mon 03:41:14 PM 27.0228 -82.6244 335° Northwest 412 474 34,400 2,000 Climbing Miami Center
Mon 03:42:14 PM 27.1208 -82.6783 334° Northwest 407 468 36,400 1,950 Climbing Miami Center
Mon 03:43:14 PM 27.2189 -82.7275 336° Northwest 397 457 38,300 1,750 Climbing Miami Center
Mon 03:44:14 PM 27.3231 -82.7842 334° Northwest 378 435 39,900 850 Climbing Miami Center
Mon 03:45:14 PM 27.4131 -82.8308 335° Northwest 388 447 40,000 50 Climbing Miami Center
Mon 03:46:14 PM 27.5089 -82.8828 334° Northwest 388 447 40,000  Level Miami Center
Mon 03:47:14 PM 27.6089 -82.9347 335° Northwest 393 452 40,000  Level Miami Center
Mon 03:49:43 PM 27.8514 -83.0639 335° Northwest 387 445 40,000  Level Jacksonville Center
Mon 03:50:43 PM 27.9514 -83.1181 334° Northwest 387 445 40,000  Level Jacksonville Center
Mon 03:51:43 PM 28.0517 -83.1583 340° North 387 445 40,000  Level Jacksonville Center
Mon 03:52:43 PM 28.1622 -83.1797 350° North 387 445 40,000  Level Jacksonville Center
Mon 03:53:43 PM 28.2747 -83.2014 350° North 395 455 40,000  Level Jacksonville Center
Mon 03:54:43 PM 28.3853 -83.2206 351° North 395 455 40,000  Level Jacksonville Center
Mon 03:55:43 PM 28.4917 -83.2422 350° North 395 455 40,000  Level Jacksonville Center
Mon 03:56:43 PM 28.6003 -83.2639 350° North 390 449 40,000  Level Jacksonville Center
Mon 03:57:43 PM 28.7108 -83.2856 350° North 390 449 40,000  Level Jacksonville Center
Mon 03:58:43 PM 28.8192 -83.3072 350° North 390 449 40,000  Level Jacksonville Center
Mon 03:59:43 PM 28.9275 -83.3339 348° North 390 449 40,000  Level Jacksonville Center
Mon 04:00:43 PM 29.0275 -83.3889 334° Northwest 390 449 40,000  Level Jacksonville Center
Mon 04:01:43 PM 29.1172 -83.4511 329° Northwest 385 443 40,000  Level Jacksonville Center
Mon 04:02:43 PM 29.2044 -83.5158 327° Northwest 380 437 40,000  Level Jacksonville Center
Mon 04:03:43 PM 29.2958 -83.5808 328° Northwest 380 437 40,000  Level Jacksonville Center
Mon 04:04:43 PM 29.3853 -83.6458 328° Northwest 380 437 40,000  Level Jacksonville Center
Mon 04:05:43 PM 29.4747 -83.7108 328° Northwest 385 443 40,000  Level Jacksonville Center
Mon 04:06:43 PM 29.5661 -83.7761 328° Northwest 385 443 40,000  Level Jacksonville Center
Mon 04:07:43 PM 29.6556 -83.8414 328° Northwest 385 443 40,000  Level Jacksonville Center
Mon 04:08:43 PM 29.7467 -83.9069 328° Northwest 385 443 40,000  Level Jacksonville Center
Mon 04:09:43 PM 29.8361 -83.9725 328° Northwest 385 443 40,000  Level Jacksonville Center
Mon 04:10:43 PM 29.9253 -84.0358 328° Northwest 380 437 40,000  Level Jacksonville Center
Mon 04:11:43 PM 30.0144 -84.1039 327° Northwest 380 437 40,000  Level Jacksonville Center
Mon 04:12:43 PM 30.1036 -84.1675 328° Northwest 380 437 40,000  Level Jacksonville Center
Mon 04:13:43 PM 30.2031 -84.2386 328° Northwest 375 432 40,000  Level Jacksonville Center
Mon 04:14:43 PM 30.2922 -84.3022 328° Northwest 375 432 40,000  Level Jacksonville Center
Mon 04:15:43 PM 30.3792 -84.3686 327° Northwest 375 432 40,000  Level Jacksonville Center
Mon 04:16:43 PM 30.4681 -84.4325 328° Northwest 375 432 40,000  Level Jacksonville Center
Mon 04:17:43 PM 30.5569 -84.4967 328° Northwest 375 432 40,000  Level Jacksonville Center
Mon 04:18:43 PM 30.6481 -84.5636 328° Northwest 380 437 40,000  Level Jacksonville Center
Mon 04:19:43 PM 30.7369 -84.6328 326° Northwest 380 437 40,000  Level Jacksonville Center
Mon 04:20:43 PM 30.8217 -84.6972 327° Northwest 385 443 40,000  Level Jacksonville Center
Mon 04:21:43 PM 30.9083 -84.7617 327° Northwest 380 437 40,000  Level Jacksonville Center
Mon 04:23:33 PM 31.0633 -84.8775 327° Northwest 380 437 40,000  Level Atlanta Center
Mon 04:24:33 PM 31.1486 -84.9439 326° Northwest 380 437 40,000  Level Atlanta Center
Mon 04:25:33 PM 31.2378 -85.0103 328° Northwest 380 437 40,000  Level Atlanta Center
Mon 04:26:33 PM 31.3269 -85.0792 327° Northwest 380 437 40,000  Level Atlanta Center
Mon 04:27:33 PM 31.4161 -85.1436 328° Northwest 380 437 40,000  Level Atlanta Center
Mon 04:28:33 PM 31.5011 -85.2056 328° Northwest 372 428 40,000  Level Atlanta Center
Mon 04:29:33 PM 31.5903 -85.2750 326° Northwest 372 428 40,000  Level Atlanta Center
Mon 04:30:33 PM 31.6750 -85.3369 328° Northwest 367 422 40,000  Level Atlanta Center
Mon 04:31:33 PM 31.7494 -85.4186 317° Northwest 367 422 40,000  Level Atlanta Center
Mon 04:32:33 PM 31.8172 -85.5103 311° West 367 422 40,000  Level Atlanta Center
Mon 04:33:33 PM 31.8828 -85.5994 311° West 367 422 40,000  Level Atlanta Center
Mon 04:34:33 PM 31.9528 -85.6886 313° West 367 422 40,000  Level Atlanta Center
Mon 04:35:33 PM 32.0306 -85.7956 311° West 375 432 40,000  Level Atlanta Center
Mon 04:36:33 PM 32.0958 -85.8875 310° West 375 432 40,000  Level Atlanta Center
Mon 04:37:33 PM 32.1633 -85.9772 312° West 375 432 40,000  Level Atlanta Center
Mon 04:38:33 PM 32.2331 -86.0669 313° West 375 432 40,000  Level Atlanta Center
Mon 04:39:33 PM 32.3003 -86.1569 311° West 370 426 40,000  Level Atlanta Center
Mon 04:40:33 PM 32.3636 -86.2469 310° West 370 426 40,000  Level Atlanta Center
Mon 04:41:33 PM 32.4186 -86.3197 312° West 370 426 40,000  Level Atlanta Center
Mon 04:42:33 PM 32.4961 -86.4128 315° West 370 426 40,000  Level Atlanta Center
Mon 04:43:33 PM 32.5733 -86.5161 312° West 370 426 40,000  Level Atlanta Center
Mon 04:44:33 PM 32.6425 -86.6042 313° West 370 426 40,000  Level Atlanta Center
Mon 04:45:33 PM 32.7097 -86.6903 313° West 370 426 40,000  Level Atlanta Center
Mon 04:46:33 PM 32.7764 -86.7811 311° West 370 426 40,000  Level Atlanta Center
Mon 04:47:33 PM 32.8433 -86.8722 311° West 370 426 40,000  Level Atlanta Center
Mon 04:48:33 PM 32.9103 -86.9586 313° West 370 426 40,000  Level Atlanta Center
Mon 04:49:33 PM 32.9789 -87.0475 313° West 370 426 40,000  Level Atlanta Center
Mon 04:50:33 PM 33.0356 -87.1236 312° West 370 426 40,000  Level Atlanta Center
Mon 04:51:33 PM 33.1064 -87.2131 313° West 362 417 40,000  Level Atlanta Center
Mon 04:52:33 PM 33.1728 -87.3022 312° West 362 417 40,000  Level Atlanta Center
Mon 04:53:33 PM 33.2372 -87.3917 311° West 362 417 40,000  Level Atlanta Center
Mon 04:55:10 PM 33.3475 -87.5372 312° West 380 437 40,000  Level Memphis Center
Mon 04:56:10 PM 33.4142 -87.6272 312° West 375 432 40,000  Level Memphis Center
Mon 04:57:11 PM 33.4831 -87.7172 313° West 370 426 40,000  Level Memphis Center
Mon 04:58:11 PM 33.5475 -87.8100 310° West 370 426 40,000  Level Memphis Center
Mon 04:59:10 PM 33.6139 -87.8978 312° West 365 420 40,000  Level Memphis Center
Mon 05:00:11 PM 33.6886 -87.9806 317° Northwest 360 414 40,000  Level Memphis Center
Mon 05:01:11 PM 33.7592 -88.0686 314° West 360 414 40,000  Level Memphis Center
Mon 05:02:10 PM 33.8400 -88.1564 318° Northwest 360 414 40,000  Level Memphis Center
Mon 05:03:11 PM 33.9022 -88.2425 311° West 365 420 40,000  Level Memphis Center
Mon 05:04:11 PM 33.9725 -88.3258 315° West 365 420 40,000  Level Memphis Center
Mon 05:05:11 PM 34.0447 -88.4119 315° West 365 420 40,000  Level Memphis Center
Mon 05:06:11 PM 34.1169 -88.5006 315° West 370 426 40,000  Level Memphis Center
Mon 05:07:11 PM 34.1892 -88.5869 315° West 370 426 40,000  Level Memphis Center
Mon 05:08:11 PM 34.2572 -88.6683 315° West 370 426 40,000  Level Memphis Center
Mon 05:09:11 PM 34.3292 -88.7575 314° West 370 426 40,000  Level Memphis Center
Mon 05:10:11 PM 34.3969 -88.8367 316° Northwest 357 411 40,000  Level Memphis Center
Mon 05:11:11 PM 34.4692 -88.9236 315° West 357 411 40,000  Level Memphis Center
Mon 05:12:10 PM 34.5453 -89.0183 314° West 357 411 40,000  Level Memphis Center
Mon 05:13:11 PM 34.6150 -89.1056 314° West 357 411 40,000  Level Memphis Center
Mon 05:14:11 PM 34.6867 -89.1928 315° West 357 411 40,000  Level Memphis Center
Mon 05:15:11 PM 34.7564 -89.2803 314° West 363 418 40,000  Level Memphis Center
Mon 05:16:10 PM 34.8281 -89.3678 315° West 363 418 40,000  Level Memphis Center
Mon 05:17:11 PM 34.8997 -89.4531 316° Northwest 363 418 40,000  Level Memphis Center
Mon 05:18:11 PM 34.9711 -89.5411 315° West 369 425 40,000  Level Memphis Center
Mon 05:19:11 PM 35.0447 -89.6317 315° West 369 425 40,000  Level Memphis Center
Mon 05:20:11 PM 35.1142 -89.7225 313° West 369 425 40,000  Level Memphis Center
Mon 05:21:11 PM 35.1833 -89.8108 314° West 369 425 40,000  Level Memphis Center
Mon 05:22:11 PM 35.2506 -89.8994 313° West 369 425 40,000  Level Memphis Center
Mon 05:23:11 PM 35.3197 -89.9856 315° West 369 425 40,000  Level Memphis Center
Mon 05:24:11 PM 35.3889 -90.0744 314° West 363 418 40,000  Level Memphis Center
Mon 05:25:11 PM 35.4556 -90.1608 313° West 357 411 40,000  Level Memphis Center
Mon 05:26:11 PM 35.5225 -90.2500 313° West 357 411 40,000  Level Memphis Center
Mon 05:27:11 PM 35.5853 -90.3264 315° West 352 405 40,000  Level Memphis Center
Mon 05:28:11 PM 35.6539 -90.4183 313° West 352 405 40,000  Level Memphis Center
Mon 05:29:11 PM 35.7144 -90.5053 311° West 352 405 40,000  Level Memphis Center
Mon 05:30:11 PM 35.7811 -90.5925 313° West 346 398 40,000  Level Memphis Center
Mon 05:31:11 PM 35.8517 -90.6822 314° West 346 398 40,000  Level Memphis Center
Mon 05:32:11 PM 35.9203 -90.7697 314° West 352 405 40,000  Level Memphis Center
Mon 05:33:11 PM 35.9867 -90.8572 313° West 352 405 40,000  Level Memphis Center
Mon 05:34:11 PM 36.0572 -90.9475 314° West 352 405 40,000  Level Memphis Center
Mon 05:35:10 PM 36.1256 -91.0406 312° West 352 405 40,000  Level Memphis Center
Mon 05:36:11 PM 36.1939 -91.1311 313° West 358 412 40,000  Level Memphis Center
Mon 05:37:11 PM 36.2642 -91.2219 314° West 358 412 40,000  Level Memphis Center
Mon 05:38:11 PM 36.3300 -91.3128 312° West 358 412 40,000  Level Memphis Center
Mon 05:39:11 PM 36.4025 -91.4011 316° Northwest 363 418 40,000  Level Memphis Center
Mon 05:40:11 PM 36.4703 -91.4950 312° West 369 425 40,000  Level Memphis Center
Mon 05:41:11 PM 36.5444 -91.5889 315° West 358 412 40,000  Level Memphis Center
Mon 05:42:11 PM 36.6144 -91.6806 314° West 358 412 40,000  Level Memphis Center
Mon 05:42:41 PM 36.6406 -91.7164 312° West 358 412 40,000  Level Kansas City Center
Mon 05:43:43 PM 36.7089 -91.8083 313° West 359 413 40,000  Level Kansas City Center
Mon 05:44:46 PM 36.7772 -91.8997 313° West 359 413 40,000  Level Kansas City Center
Mon 05:45:48 PM 36.8597 -92.0092 313° West 358 412 40,000  Level Kansas City Center
Mon 05:46:50 PM 36.9272 -92.1017 312° West 359 413 40,000  Level Kansas City Center
Mon 05:47:52 PM 36.9953 -92.1942 313° West 359 413 40,000  Level Kansas City Center
Mon 05:48:54 PM 37.0633 -92.2861 313° West 360 414 40,000  Level Kansas City Center
Mon 05:49:56 PM 37.1322 -92.3797 313° West 361 415 40,000  Level Kansas City Center
Mon 05:50:58 PM 37.1997 -92.4725 312° West 360 414 40,000 -435 Level Kansas City Center
Mon 05:52:00 PM 37.2678 -92.5675 312° West 362 417 39,100 -1,065 Descending Kansas City Center
Mon 05:53:02 PM 37.3506 -92.6825 312° West 366 421 37,800 -1,016 Descending Kansas City Center
Mon 05:54:04 PM 37.4203 -92.7797 312° West 368 423 37,000 -387 Descending Kansas City Center
Mon 05:55:06 PM 37.4922 -92.8775 313° West 374 430 37,000  Level Kansas City Center
Mon 05:56:08 PM 37.5636 -92.9769 312° West 377 434 37,000 -387 Level Kansas City Center
Mon 05:57:10 PM 37.6356 -93.0772 312° West 381 438 36,200 -1,161 Descending Kansas City Center
Mon 05:58:12 PM 37.7056 -93.1750 312° West 377 434 34,600 -1,500 Descending Kansas City Center
Mon 05:59:14 PM 37.7758 -93.2750 312° West 377 434 33,100 -1,452 Descending Kansas City Center
Mon 06:00:16 PM 37.8514 -93.3808 312° West 395 455 31,600 -1,839 Descending Kansas City Center
Mon 06:01:18 PM 37.9419 -93.5108 311° West 407 468 29,300 -2,323 Descending Kansas City Center
Mon 06:02:20 PM 38.0192 -93.6192 312° West 410 472 26,800 -2,371 Descending Kansas City Center
Mon 06:03:22 PM 38.0961 -93.7319 311° West 418 481 24,400 -2,323 Descending Kansas City Center
Mon 06:04:24 PM 38.1961 -93.8067 330° Northwest 427 491 22,000 -2,352 Descending Kansas City Center
Mon 06:05:27 PM 38.3078 -93.8664 337° Northwest 433 498 19,500 -2,352 Descending Kansas City Center
Mon 06:06:29 PM 38.4136 -93.9278 336° Northwest 423 487 17,100 -2,468 Descending Kansas City Center
Mon 06:07:31 PM 38.5364 -93.9978 336° Northwest 417 480 14,400 -2,371 Descending Kansas City Center
Mon 06:08:33 PM 38.6336 -94.0547 335° Northwest 403 464 12,200 -1,210 Descending Kansas City Center
Mon 06:09:35 PM 38.7367 -94.1353 329° Northwest 392 451 11,900 -726 Descending Kansas City Center
Mon 06:10:37 PM 38.8144 -94.2236 319° Northwest 390 449 10,700 -1,161 Descending Kansas City Center
Mon 06:11:39 PM 38.9039 -94.2881 331° Northwest 320 368 9,500 -1,500 Descending Kansas City Center
Mon 06:12:41 PM 38.9750 -94.3308 335° Northwest 297 342 7,600 -1,645 Descending Kansas City Center
Mon 06:13:43 PM 39.0428 -94.3703 336° Northwest 283 326 6,100 -1,065 Descending Kansas City Center
Mon 06:14:45 PM 39.1206 -94.4106 338° Northwest 271 312 5,400 -968 Descending Kansas City Center
Mon 06:15:47 PM 39.1906 -94.4339 346° North 272 313 4,100 -1,065 Descending Kansas City Center
Mon 06:16:49 PM 39.2331 -94.4919 313° West 211 243 3,200 -726 Descending Kansas City Center
Mon 06:17:51 PM 39.2253 -94.5519 261° West 182 209 2,600 -581 Descending Kansas City Center
Mon 06:18:53 PM 39.1833 -94.5753 203° Southwest 151 174 2,000 -677 Descending Kansas City Center
Mon 06:19:55 PM 39.1400 -94.5864 191° South 148 170 1,200 -774 Descending Kansas City Center
Mon 06:21:00 PM 39.1167 -94.5833 165° South  Level FlightAware Approximate

Login

Don't have an account? Register now (free) for customized features, flight alerts, and more!